sensor_id;sensor_type;location;lat;lon;timestamp;temperature;humidity
39219;DHT22;24934;52.752;6.964;2023-04-01T00:00:29;9.30;99.90
39219;DHT22;24934;52.752;6.964;2023-04-01T00:02:55;9.30;99.90
39219;DHT22;24934;52.752;6.964;2023-04-01T00:05:21;9.30;99.90
39219;DHT22;24934;52.752;6.964;2023-04-01T00:07:47;9.30;99.90
39219;DHT22;24934;52.752;6.964;2023-04-01T00:10:13;9.30;99.90
39219;DHT22;24934;52.752;6.964;2023-04-01T00:12:39;9.30;99.90
39219;DHT22;24934;52.752;6.964;2023-04-01T00:15:06;9.30;99.90
39219;DHT22;24934;52.752;6.964;2023-04-01T00:17:32;9.30;99.90
39219;DHT22;24934;52.752;6.964;2023-04-01T00:19:58;9.30;99.90
39219;DHT22;24934;52.752;6.964;2023-04-01T00:22:25;9.30;99.90
39219;DHT22;24934;52.752;6.964;2023-04-01T00:24:52;9.30;99.90
39219;DHT22;24934;52.752;6.964;2023-04-01T00:27:18;9.30;99.90
39219;DHT22;24934;52.752;6.964;2023-04-01T00:29:45;9.20;99.90
39219;DHT22;24934;52.752;6.964;2023-04-01T00:32:11;9.30;99.90
39219;DHT22;24934;52.752;6.964;2023-04-01T00:34:36;9.30;99.90
39219;DHT22;24934;52.752;6.964;2023-04-01T00:37:03;9.30;99.90
39219;DHT22;24934;52.752;6.964;2023-04-01T00:39:30;9.20;99.90
39219;DHT22;24934;52.752;6.964;2023-04-01T00:41:56;9.20;99.90
39219;DHT22;24934;52.752;6.964;2023-04-01T00:44:28;9.20;99.90
39219;DHT22;24934;52.752;6.964;2023-04-01T00:46:53;9.20;99.90
39219;DHT22;24934;52.752;6.964;2023-04-01T00:49:26;9.20;99.90
39219;DHT22;24934;52.752;6.964;2023-04-01T00:51:56;9.20;99.90
39219;DHT22;24934;52.752;6.964;2023-04-01T00:54:24;9.20;99.90
39219;DHT22;24934;52.752;6.964;2023-04-01T00:57:05;9.20;99.90
39219;DHT22;24934;52.752;6.964;2023-04-01T00:59:35;9.20;99.90
39219;DHT22;24934;52.752;6.964;2023-04-01T01:02:04;9.20;99.90
39219;DHT22;24934;52.752;6.964;2023-04-01T01:04:33;9.20;99.90
39219;DHT22;24934;52.752;6.964;2023-04-01T01:07:03;9.20;99.90
39219;DHT22;24934;52.752;6.964;2023-04-01T01:10:03;9.20;99.90
39219;DHT22;24934;52.752;6.964;2023-04-01T01:12:47;9.20;99.90
39219;DHT22;24934;52.752;6.964;2023-04-01T01:15:41;9.20;99.90
39219;DHT22;24934;52.752;6.964;2023-04-01T01:21:04;9.20;99.90
39219;DHT22;24934;52.752;6.964;2023-04-01T01:23:51;9.20;99.90
39219;DHT22;24934;52.752;6.964;2023-04-01T01:29:23;9.20;99.90
39219;DHT22;24934;52.752;6.964;2023-04-01T01:34:50;9.20;99.90
39219;DHT22;24934;52.752;6.964;2023-04-01T01:37:20;9.20;99.90
39219;DHT22;24934;52.752;6.964;2023-04-01T01:39:53;9.20;99.90
39219;DHT22;24934;52.752;6.964;2023-04-01T01:42:20;9.20;99.90
39219;DHT22;24934;52.752;6.964;2023-04-01T01:44:48;9.20;99.90
39219;DHT22;24934;52.752;6.964;2023-04-01T01:47:16;9.20;99.90
39219;DHT22;24934;52.752;6.964;2023-04-01T01:49:43;9.20;99.90
39219;DHT22;24934;52.752;6.964;2023-04-01T01:52:11;9.20;99.90
39219;DHT22;24934;52.752;6.964;2023-04-01T01:54:47;9.20;99.90
39219;DHT22;24934;52.752;6.964;2023-04-01T01:57:14;9.20;99.90
39219;DHT22;24934;52.752;6.964;2023-04-01T01:59:42;9.20;99.90
39219;DHT22;24934;52.752;6.964;2023-04-01T02:02:09;9.20;99.90
39219;DHT22;24934;52.752;6.964;2023-04-01T02:04:40;9.20;99.90
39219;DHT22;24934;52.752;6.964;2023-04-01T02:07:12;9.20;99.90
39219;DHT22;24934;52.752;6.964;2023-04-01T02:09:40;9.20;99.90
39219;DHT22;24934;52.752;6.964;2023-04-01T02:12:08;9.20;99.90
39219;DHT22;24934;52.752;6.964;2023-04-01T02:14:57;9.20;99.90
39219;DHT22;24934;52.752;6.964;2023-04-01T02:17:27;9.20;99.90
39219;DHT22;24934;52.752;6.964;2023-04-01T02:20:15;9.20;99.90
39219;DHT22;24934;52.752;6.964;2023-04-01T02:22:47;9.20;99.90
39219;DHT22;24934;52.752;6.964;2023-04-01T02:25:17;9.20;99.90
39219;DHT22;24934;52.752;6.964;2023-04-01T02:27:45;9.20;99.90
39219;DHT22;24934;52.752;6.964;2023-04-01T02:30:13;9.20;99.90
39219;DHT22;24934;52.752;6.964;2023-04-01T02:32:39;9.20;99.90
39219;DHT22;24934;52.752;6.964;2023-04-01T02:35:08;9.20;99.90
39219;DHT22;24934;52.752;6.964;2023-04-01T02:37:36;9.20;99.90
39219;DHT22;24934;52.752;6.964;2023-04-01T02:40:03;9.20;99.90
39219;DHT22;24934;52.752;6.964;2023-04-01T02:42:31;9.20;99.90
39219;DHT22;24934;52.752;6.964;2023-04-01T02:44:57;9.20;99.90
39219;DHT22;24934;52.752;6.964;2023-04-01T02:47:23;9.20;99.90
39219;DHT22;24934;52.752;6.964;2023-04-01T02:49:48;9.10;99.90
39219;DHT22;24934;52.752;6.964;2023-04-01T02:52:14;9.20;99.90
39219;DHT22;24934;52.752;6.964;2023-04-01T02:54:40;9.20;99.90
39219;DHT22;24934;52.752;6.964;2023-04-01T02:57:06;9.20;99.90
39219;DHT22;24934;52.752;6.964;2023-04-01T02:59:31;9.10;99.90
39219;DHT22;24934;52.752;6.964;2023-04-01T03:01:57;9.20;99.90
39219;DHT22;24934;52.752;6.964;2023-04-01T03:04:23;9.20;99.90
39219;DHT22;24934;52.752;6.964;2023-04-01T03:06:48;9.10;99.90
39219;DHT22;24934;52.752;6.964;2023-04-01T03:09:14;9.20;99.90
39219;DHT22;24934;52.752;6.964;2023-04-01T03:11:39;9.20;99.90
39219;DHT22;24934;52.752;6.964;2023-04-01T03:14:06;9.20;99.90
39219;DHT22;24934;52.752;6.964;2023-04-01T03:16:32;9.20;99.90
39219;DHT22;24934;52.752;6.964;2023-04-01T03:18:58;9.20;99.90
39219;DHT22;24934;52.752;6.964;2023-04-01T03:21:25;9.20;99.90
39219;DHT22;24934;52.752;6.964;2023-04-01T03:23:51;9.20;99.90
39219;DHT22;24934;52.752;6.964;2023-04-01T03:26:17;9.10;99.90
39219;DHT22;24934;52.752;6.964;2023-04-01T03:28:43;9.10;99.90
39219;DHT22;24934;52.752;6.964;2023-04-01T03:31:09;9.10;99.90
39219;DHT22;24934;52.752;6.964;2023-04-01T03:33:35;9.10;99.90
39219;DHT22;24934;52.752;6.964;2023-04-01T03:36:01;9.10;99.90
39219;DHT22;24934;52.752;6.964;2023-04-01T03:38:26;9.10;99.90
39219;DHT22;24934;52.752;6.964;2023-04-01T03:40:52;9.10;99.90
39219;DHT22;24934;52.752;6.964;2023-04-01T03:43:17;9.10;99.90
39219;DHT22;24934;52.752;6.964;2023-04-01T03:45:45;9.10;99.90
39219;DHT22;24934;52.752;6.964;2023-04-01T03:48:10;9.10;99.90
39219;DHT22;24934;52.752;6.964;2023-04-01T03:50:36;9.10;99.90
39219;DHT22;24934;52.752;6.964;2023-04-01T03:53:01;9.10;99.90
39219;DHT22;24934;52.752;6.964;2023-04-01T03:55:27;9.10;99.90
39219;DHT22;24934;52.752;6.964;2023-04-01T03:57:52;9.10;99.90
39219;DHT22;24934;52.752;6.964;2023-04-01T04:00:18;9.10;99.90
39219;DHT22;24934;52.752;6.964;2023-04-01T04:02:44;9.10;99.90
39219;DHT22;24934;52.752;6.964;2023-04-01T04:05:10;9.10;99.90
39219;DHT22;24934;52.752;6.964;2023-04-01T04:07:36;9.10;99.90
39219;DHT22;24934;52.752;6.964;2023-04-01T04:10:02;9.10;99.90
39219;DHT22;24934;52.752;6.964;2023-04-01T04:12:27;9.10;99.90
39219;DHT22;24934;52.752;6.964;2023-04-01T04:14:53;9.10;99.90
39219;DHT22;24934;52.752;6.964;2023-04-01T04:17:18;9.10;99.90
39219;DHT22;24934;52.752;6.964;2023-04-01T04:19:44;9.10;99.90
39219;DHT22;24934;52.752;6.964;2023-04-01T04:22:10;9.10;99.90
39219;DHT22;24934;52.752;6.964;2023-04-01T04:24:36;9.10;99.90
39219;DHT22;24934;52.752;6.964;2023-04-01T04:27:02;9.10;99.90
39219;DHT22;24934;52.752;6.964;2023-04-01T04:29:28;9.10;99.90
39219;DHT22;24934;52.752;6.964;2023-04-01T04:31:53;9.10;99.90
39219;DHT22;24934;52.752;6.964;2023-04-01T04:34:19;9.10;99.90
39219;DHT22;24934;52.752;6.964;2023-04-01T04:36:45;9.10;99.90
39219;DHT22;24934;52.752;6.964;2023-04-01T04:39:10;9.10;99.90
39219;DHT22;24934;52.752;6.964;2023-04-01T04:41:39;9.10;99.90
39219;DHT22;24934;52.752;6.964;2023-04-01T04:44:05;9.10;99.90
39219;DHT22;24934;52.752;6.964;2023-04-01T04:46:31;9.10;99.90
39219;DHT22;24934;52.752;6.964;2023-04-01T04:48:56;9.10;99.90
39219;DHT22;24934;52.752;6.964;2023-04-01T04:51:22;9.10;99.90
39219;DHT22;24934;52.752;6.964;2023-04-01T04:53:48;9.10;99.90
39219;DHT22;24934;52.752;6.964;2023-04-01T04:56:18;9.10;99.90
39219;DHT22;24934;52.752;6.964;2023-04-01T04:58:44;9.10;99.90
39219;DHT22;24934;52.752;6.964;2023-04-01T05:01:12;9.10;99.90
39219;DHT22;24934;52.752;6.964;2023-04-01T05:03:38;9.10;99.90
39219;DHT22;24934;52.752;6.964;2023-04-01T05:06:06;9.10;99.90
39219;DHT22;24934;52.752;6.964;2023-04-01T05:08:32;9.10;99.90
39219;DHT22;24934;52.752;6.964;2023-04-01T05:10:58;9.10;99.90
39219;DHT22;24934;52.752;6.964;2023-04-01T05:13:24;9.10;99.90
39219;DHT22;24934;52.752;6.964;2023-04-01T05:15:50;9.10;99.90
39219;DHT22;24934;52.752;6.964;2023-04-01T05:18:16;9.10;99.90
39219;DHT22;24934;52.752;6.964;2023-04-01T05:20:52;9.10;99.90
39219;DHT22;24934;52.752;6.964;2023-04-01T05:23:19;9.10;99.90
39219;DHT22;24934;52.752;6.964;2023-04-01T05:25:49;9.20;99.90
39219;DHT22;24934;52.752;6.964;2023-04-01T05:28:18;9.10;99.90
39219;DHT22;24934;52.752;6.964;2023-04-01T05:30:44;9.20;99.90
39219;DHT22;24934;52.752;6.964;2023-04-01T05:33:11;9.10;99.90
39219;DHT22;24934;52.752;6.964;2023-04-01T05:35:37;9.20;99.90
39219;DHT22;24934;52.752;6.964;2023-04-01T05:38:03;9.20;99.90
39219;DHT22;24934;52.752;6.964;2023-04-01T05:40:29;9.20;99.90
39219;DHT22;24934;52.752;6.964;2023-04-01T05:42:59;9.20;99.90
39219;DHT22;24934;52.752;6.964;2023-04-01T05:45:24;9.20;99.90
39219;DHT22;24934;52.752;6.964;2023-04-01T05:47:50;9.20;99.90
39219;DHT22;24934;52.752;6.964;2023-04-01T05:50:16;9.20;99.90
39219;DHT22;24934;52.752;6.964;2023-04-01T05:52:42;9.20;99.90
39219;DHT22;24934;52.752;6.964;2023-04-01T05:55:08;9.20;99.90
39219;DHT22;24934;52.752;6.964;2023-04-01T05:57:33;9.20;99.90
39219;DHT22;24934;52.752;6.964;2023-04-01T05:59:59;9.20;99.90
39219;DHT22;24934;52.752;6.964;2023-04-01T06:02:25;9.20;99.90
39219;DHT22;24934;52.752;6.964;2023-04-01T06:05:00;9.30;99.90
39219;DHT22;24934;52.752;6.964;2023-04-01T06:07:29;9.30;99.90
39219;DHT22;24934;52.752;6.964;2023-04-01T06:09:54;9.30;99.90
39219;DHT22;24934;52.752;6.964;2023-04-01T06:12:47;9.30;99.90
39219;DHT22;24934;52.752;6.964;2023-04-01T06:21:03;9.30;99.90
39219;DHT22;24934;52.752;6.964;2023-04-01T06:24:03;9.30;99.90
39219;DHT22;24934;52.752;6.964;2023-04-01T06:26:50;9.30;99.90
39219;DHT22;24934;52.752;6.964;2023-04-01T06:29:25;9.30;99.90
39219;DHT22;24934;52.752;6.964;2023-04-01T06:32:03;9.30;99.90
39219;DHT22;24934;52.752;6.964;2023-04-01T06:45:54;9.40;99.90
39219;DHT22;24934;52.752;6.964;2023-04-01T06:48:42;9.40;99.90
39219;DHT22;24934;52.752;6.964;2023-04-01T06:51:44;9.50;99.90
39219;DHT22;24934;52.752;6.964;2023-04-01T06:56:58;9.50;99.90
39219;DHT22;24934;52.752;6.964;2023-04-01T06:59:30;9.50;99.90
39219;DHT22;24934;52.752;6.964;2023-04-01T07:02:01;9.60;99.90
39219;DHT22;24934;52.752;6.964;2023-04-01T07:04:33;9.60;99.90
39219;DHT22;24934;52.752;6.964;2023-04-01T07:07:03;9.60;99.90
39219;DHT22;24934;52.752;6.964;2023-04-01T07:09:41;9.70;99.90
39219;DHT22;24934;52.752;6.964;2023-04-01T07:12:32;9.70;99.90
39219;DHT22;24934;52.752;6.964;2023-04-01T07:15:06;9.60;99.90
39219;DHT22;24934;52.752;6.964;2023-04-01T07:17:39;9.70;99.90
39219;DHT22;24934;52.752;6.964;2023-04-01T07:20:23;9.70;99.90
39219;DHT22;24934;52.752;6.964;2023-04-01T07:22:56;9.70;99.90
39219;DHT22;24934;52.752;6.964;2023-04-01T07:25:34;9.70;99.90
39219;DHT22;24934;52.752;6.964;2023-04-01T07:28:13;9.70;99.90
39219;DHT22;24934;52.752;6.964;2023-04-01T07:36:47;9.70;99.90
39219;DHT22;24934;52.752;6.964;2023-04-01T07:39:37;9.80;99.90
39219;DHT22;24934;52.752;6.964;2023-04-01T07:42:20;9.80;99.90
39219;DHT22;24934;52.752;6.964;2023-04-01T07:50:28;9.90;99.90
39219;DHT22;24934;52.752;6.964;2023-04-01T08:07:10;10.00;99.90
39219;DHT22;24934;52.752;6.964;2023-04-01T08:10:05;10.10;99.90
39219;DHT22;24934;52.752;6.964;2023-04-01T08:16:05;10.10;99.90
39219;DHT22;24934;52.752;6.964;2023-04-01T08:18:51;10.00;99.90
39219;DHT22;24934;52.752;6.964;2023-04-01T08:21:21;10.10;99.90
39219;DHT22;24934;52.752;6.964;2023-04-01T08:23:49;10.10;99.90
39219;DHT22;24934;52.752;6.964;2023-04-01T08:26:34;10.10;99.90
39219;DHT22;24934;52.752;6.964;2023-04-01T08:29:12;10.20;99.90
39219;DHT22;24934;52.752;6.964;2023-04-01T08:31:51;10.20;99.90
39219;DHT22;24934;52.752;6.964;2023-04-01T08:34:25;10.10;99.90
39219;DHT22;24934;52.752;6.964;2023-04-01T08:36:57;10.20;99.90
39219;DHT22;24934;52.752;6.964;2023-04-01T08:39:33;10.20;99.90
39219;DHT22;24934;52.752;6.964;2023-04-01T08:42:38;10.20;99.90
39219;DHT22;24934;52.752;6.964;2023-04-01T08:50:57;10.50;99.90
39219;DHT22;24934;52.752;6.964;2023-04-01T09:07:35;10.70;99.90
39219;DHT22;24934;52.752;6.964;2023-04-01T09:23:46;10.90;99.90
39219;DHT22;24934;52.752;6.964;2023-04-01T09:37:51;10.80;99.90
39219;DHT22;24934;52.752;6.964;2023-04-01T09:40:46;10.70;99.90
39219;DHT22;24934;52.752;6.964;2023-04-01T09:43:26;10.70;99.90
39219;DHT22;24934;52.752;6.964;2023-04-01T09:47:04;10.60;99.90
39219;DHT22;24934;52.752;6.964;2023-04-01T09:57:22;10.50;99.90
39219;DHT22;24934;52.752;6.964;2023-04-01T10:12:02;10.60;99.90
39219;DHT22;24934;52.752;6.964;2023-04-01T10:17:55;10.80;99.90
39219;DHT22;24934;52.752;6.964;2023-04-01T10:23:39;11.00;99.90
39219;DHT22;24934;52.752;6.964;2023-04-01T10:32:10;11.00;99.90
39219;DHT22;24934;52.752;6.964;2023-04-01T10:54:14;11.50;99.90
39219;DHT22;24934;52.752;6.964;2023-04-01T10:57:01;11.60;99.90
39219;DHT22;24934;52.752;6.964;2023-04-01T11:19:49;11.60;99.90
39219;DHT22;24934;52.752;6.964;2023-04-01T11:22:55;11.50;99.90
39219;DHT22;24934;52.752;6.964;2023-04-01T11:42:24;11.90;99.90
39219;DHT22;24934;52.752;6.964;2023-04-01T11:45:25;11.90;99.90
39219;DHT22;24934;52.752;6.964;2023-04-01T11:59:41;11.90;99.90
39219;DHT22;24934;52.752;6.964;2023-04-01T12:05:46;12.00;99.90
39219;DHT22;24934;52.752;6.964;2023-04-01T12:10:44;11.60;99.90
39219;DHT22;24934;52.752;6.964;2023-04-01T12:13:29;11.30;99.90
39219;DHT22;24934;52.752;6.964;2023-04-01T12:24:47;10.70;99.90
39219;DHT22;24934;52.752;6.964;2023-04-01T12:30:35;10.60;99.90
39219;DHT22;24934;52.752;6.964;2023-04-01T12:47:58;10.30;99.90
39219;DHT22;24934;52.752;6.964;2023-04-01T12:54:22;10.30;99.90
39219;DHT22;24934;52.752;6.964;2023-04-01T12:57:16;10.30;99.90
39219;DHT22;24934;52.752;6.964;2023-04-01T13:02:49;10.20;99.90
39219;DHT22;24934;52.752;6.964;2023-04-01T13:18:58;9.70;99.90
39219;DHT22;24934;52.752;6.964;2023-04-01T13:32:29;9.40;99.90
39219;DHT22;24934;52.752;6.964;2023-04-01T13:35:35;9.40;99.90
39219;DHT22;24934;52.752;6.964;2023-04-01T13:38:08;9.40;99.90
39219;DHT22;24934;52.752;6.964;2023-04-01T13:40:43;9.40;99.90
39219;DHT22;24934;52.752;6.964;2023-04-01T13:43:27;9.40;99.90
39219;DHT22;24934;52.752;6.964;2023-04-01T13:48:30;9.50;99.90
39219;DHT22;24934;52.752;6.964;2023-04-01T13:56:28;9.50;99.90
39219;DHT22;24934;52.752;6.964;2023-04-01T14:04:53;9.70;99.90
39219;DHT22;24934;52.752;6.964;2023-04-01T14:10:23;9.80;99.90
39219;DHT22;24934;52.752;6.964;2023-04-01T14:18:42;10.00;99.90
39219;DHT22;24934;52.752;6.964;2023-04-01T14:21:28;10.00;99.90
39219;DHT22;24934;52.752;6.964;2023-04-01T14:27:41;10.00;99.90
39219;DHT22;24934;52.752;6.964;2023-04-01T14:30:14;10.00;99.90
39219;DHT22;24934;52.752;6.964;2023-04-01T14:32:51;9.90;99.90
39219;DHT22;24934;52.752;6.964;2023-04-01T14:48:48;9.40;99.90
39219;DHT22;24934;52.752;6.964;2023-04-01T14:51:34;9.30;99.90
39219;DHT22;24934;52.752;6.964;2023-04-01T14:57:05;9.30;99.90
39219;DHT22;24934;52.752;6.964;2023-04-01T14:59:40;9.40;99.90
39219;DHT22;24934;52.752;6.964;2023-04-01T15:02:20;9.20;99.90
39219;DHT22;24934;52.752;6.964;2023-04-01T15:04:55;9.20;99.90
39219;DHT22;24934;52.752;6.964;2023-04-01T15:13:13;9.20;99.90
39219;DHT22;24934;52.752;6.964;2023-04-01T15:27:19;9.00;99.90
39219;DHT22;24934;52.752;6.964;2023-04-01T15:32:42;9.00;99.90
39219;DHT22;24934;52.752;6.964;2023-04-01T15:40:24;8.90;99.90
39219;DHT22;24934;52.752;6.964;2023-04-01T15:46:22;8.80;99.90
39219;DHT22;24934;52.752;6.964;2023-04-01T16:00:29;8.60;99.90
39219;DHT22;24934;52.752;6.964;2023-04-01T16:19:33;8.40;99.90
39219;DHT22;24934;52.752;6.964;2023-04-01T16:22:23;8.40;99.90
39219;DHT22;24934;52.752;6.964;2023-04-01T16:27:54;8.30;99.90
39219;DHT22;24934;52.752;6.964;2023-04-01T16:35:59;8.10;99.90
39219;DHT22;24934;52.752;6.964;2023-04-01T16:38:48;8.10;99.90
39219;DHT22;24934;52.752;6.964;2023-04-01T16:41:26;8.10;99.90
39219;DHT22;24934;52.752;6.964;2023-04-01T16:46:46;8.10;99.90
39219;DHT22;24934;52.752;6.964;2023-04-01T16:49:32;8.00;99.90
39219;DHT22;24934;52.752;6.964;2023-04-01T16:52:13;8.00;99.90
39219;DHT22;24934;52.752;6.964;2023-04-01T16:54:47;8.00;99.90
39219;DHT22;24934;52.752;6.964;2023-04-01T16:57:27;7.90;99.90
39219;DHT22;24934;52.752;6.964;2023-04-01T17:02:23;7.80;99.90
39219;DHT22;24934;52.752;6.964;2023-04-01T17:21:43;7.40;99.90
39219;DHT22;24934;52.752;6.964;2023-04-01T17:24:43;7.40;99.90
39219;DHT22;24934;52.752;6.964;2023-04-01T17:29:58;7.30;99.90
39219;DHT22;24934;52.752;6.964;2023-04-01T17:35:25;7.30;99.90
39219;DHT22;24934;52.752;6.964;2023-04-01T17:38:12;7.20;99.90
39219;DHT22;24934;52.752;6.964;2023-04-01T17:43:22;7.20;99.90
39219;DHT22;24934;52.752;6.964;2023-04-01T17:45:55;7.20;99.90
39219;DHT22;24934;52.752;6.964;2023-04-01T17:48:28;7.20;99.90
39219;DHT22;24934;52.752;6.964;2023-04-01T17:56:49;7.10;99.90
39219;DHT22;24934;52.752;6.964;2023-04-01T17:59:31;7.10;99.90
39219;DHT22;24934;52.752;6.964;2023-04-01T18:11:11;7.00;99.90
39219;DHT22;24934;52.752;6.964;2023-04-01T18:17:03;6.90;99.90
39219;DHT22;24934;52.752;6.964;2023-04-01T18:19:50;6.90;99.90
39219;DHT22;24934;52.752;6.964;2023-04-01T18:25:35;6.80;99.90
39219;DHT22;24934;52.752;6.964;2023-04-01T18:36:53;6.70;99.90
39219;DHT22;24934;52.752;6.964;2023-04-01T18:39:41;6.70;99.90
39219;DHT22;24934;52.752;6.964;2023-04-01T18:48:14;6.60;99.90
39219;DHT22;24934;52.752;6.964;2023-04-01T18:50:53;6.60;99.90
39219;DHT22;24934;52.752;6.964;2023-04-01T18:56:46;6.50;99.90
39219;DHT22;24934;52.752;6.964;2023-04-01T18:59:28;6.40;99.90
39219;DHT22;24934;52.752;6.964;2023-04-01T19:02:31;6.40;99.90
39219;DHT22;24934;52.752;6.964;2023-04-01T19:07:49;6.30;99.90
39219;DHT22;24934;52.752;6.964;2023-04-01T19:10:23;6.20;99.90
39219;DHT22;24934;52.752;6.964;2023-04-01T19:18:43;6.10;99.90
39219;DHT22;24934;52.752;6.964;2023-04-01T19:21:25;6.10;99.90
39219;DHT22;24934;52.752;6.964;2023-04-01T19:24:07;6.10;99.90
39219;DHT22;24934;52.752;6.964;2023-04-01T19:29:48;6.00;99.90
39219;DHT22;24934;52.752;6.964;2023-04-01T19:40:54;5.90;99.90
39219;DHT22;24934;52.752;6.964;2023-04-01T19:46:33;5.90;99.90
39219;DHT22;24934;52.752;6.964;2023-04-01T19:49:06;5.80;99.90
39219;DHT22;24934;52.752;6.964;2023-04-01T19:51:39;5.80;99.90
39219;DHT22;24934;52.752;6.964;2023-04-01T19:54:28;5.80;99.90
39219;DHT22;24934;52.752;6.964;2023-04-01T20:02:50;5.80;99.90
39219;DHT22;24934;52.752;6.964;2023-04-01T20:05:33;5.70;99.90
39219;DHT22;24934;52.752;6.964;2023-04-01T20:11:11;5.70;99.90
39219;DHT22;24934;52.752;6.964;2023-04-01T20:16:18;5.70;99.90
39219;DHT22;24934;52.752;6.964;2023-04-01T20:19:00;5.70;99.90
39219;DHT22;24934;52.752;6.964;2023-04-01T20:26:38;5.70;99.90
39219;DHT22;24934;52.752;6.964;2023-04-01T20:29:27;5.70;99.90
39219;DHT22;24934;52.752;6.964;2023-04-01T20:32:04;5.70;99.90
39219;DHT22;24934;52.752;6.964;2023-04-01T20:34:58;5.70;99.90
39219;DHT22;24934;52.752;6.964;2023-04-01T20:37:52;5.70;99.90
39219;DHT22;24934;52.752;6.964;2023-04-01T20:40:29;5.60;99.90
39219;DHT22;24934;52.752;6.964;2023-04-01T20:46:01;5.60;99.90
39219;DHT22;24934;52.752;6.964;2023-04-01T20:48:51;5.60;99.90
39219;DHT22;24934;52.752;6.964;2023-04-01T20:51:24;5.60;99.90
39219;DHT22;24934;52.752;6.964;2023-04-01T20:54:22;5.60;99.90
39219;DHT22;24934;52.752;6.964;2023-04-01T21:07:58;5.60;99.90
39219;DHT22;24934;52.752;6.964;2023-04-01T21:10:39;5.60;99.90
39219;DHT22;24934;52.752;6.964;2023-04-01T21:13:43;5.60;99.90
39219;DHT22;24934;52.752;6.964;2023-04-01T21:19:28;5.50;99.90
39219;DHT22;24934;52.752;6.964;2023-04-01T21:25:03;5.40;99.90
39219;DHT22;24934;52.752;6.964;2023-04-01T21:33:30;5.30;99.90
39219;DHT22;24934;52.752;6.964;2023-04-01T21:39:19;5.30;99.90
39219;DHT22;24934;52.752;6.964;2023-04-01T21:42:10;5.30;99.90
39219;DHT22;24934;52.752;6.964;2023-04-01T21:56:29;5.30;99.90
39219;DHT22;24934;52.752;6.964;2023-04-01T22:01:58;5.20;99.90
39219;DHT22;24934;52.752;6.964;2023-04-01T22:04:57;5.20;99.90
39219;DHT22;24934;52.752;6.964;2023-04-01T22:07:46;5.20;99.90
39219;DHT22;24934;52.752;6.964;2023-04-01T22:10:21;5.20;99.90
39219;DHT22;24934;52.752;6.964;2023-04-01T22:13:13;5.10;99.90
39219;DHT22;24934;52.752;6.964;2023-04-01T22:18:46;5.10;99.90
39219;DHT22;24934;52.752;6.964;2023-04-01T22:21:13;5.00;99.90
39219;DHT22;24934;52.752;6.964;2023-04-01T22:23:47;5.00;99.90
39219;DHT22;24934;52.752;6.964;2023-04-01T22:26:17;5.00;99.90
39219;DHT22;24934;52.752;6.964;2023-04-01T22:31:19;5.00;99.90
39219;DHT22;24934;52.752;6.964;2023-04-01T22:36:57;4.90;99.90
39219;DHT22;24934;52.752;6.964;2023-04-01T22:50:25;4.90;99.90
39219;DHT22;24934;52.752;6.964;2023-04-01T22:53:03;4.90;99.90
39219;DHT22;24934;52.752;6.964;2023-04-01T22:55:34;4.90;99.90
39219;DHT22;24934;52.752;6.964;2023-04-01T22:58:04;4.80;99.90
39219;DHT22;24934;52.752;6.964;2023-04-01T23:00:49;4.80;99.90
39219;DHT22;24934;52.752;6.964;2023-04-01T23:03:21;4.80;99.90
39219;DHT22;24934;52.752;6.964;2023-04-01T23:05:51;4.80;99.90
39219;DHT22;24934;52.752;6.964;2023-04-01T23:08:39;4.80;99.90
39219;DHT22;24934;52.752;6.964;2023-04-01T23:11:16;4.80;99.90
39219;DHT22;24934;52.752;6.964;2023-04-01T23:16:28;4.80;99.90
39219;DHT22;24934;52.752;6.964;2023-04-01T23:19:17;4.80;99.90
39219;DHT22;24934;52.752;6.964;2023-04-01T23:21:51;4.80;99.90
39219;DHT22;24934;52.752;6.964;2023-04-01T23:24:28;4.80;99.90
39219;DHT22;24934;52.752;6.964;2023-04-01T23:26:59;4.80;99.90
39219;DHT22;24934;52.752;6.964;2023-04-01T23:29:27;4.80;99.90
39219;DHT22;24934;52.752;6.964;2023-04-01T23:32:01;4.70;99.90
39219;DHT22;24934;52.752;6.964;2023-04-01T23:34:33;4.70;99.90
39219;DHT22;24934;52.752;6.964;2023-04-01T23:37:11;4.70;99.90
39219;DHT22;24934;52.752;6.964;2023-04-01T23:39:41;4.70;99.90
39219;DHT22;24934;52.752;6.964;2023-04-01T23:42:28;4.70;99.90
39219;DHT22;24934;52.752;6.964;2023-04-01T23:44:59;4.70;99.90
39219;DHT22;24934;52.752;6.964;2023-04-01T23:47:35;4.70;99.90
39219;DHT22;24934;52.752;6.964;2023-04-01T23:50:03;4.60;99.90
39219;DHT22;24934;52.752;6.964;2023-04-01T23:53:35;4.60;99.90
39219;DHT22;24934;52.752;6.964;2023-04-01T23:55:33;4.60;99.90
